sensor_id;sensor_type;location;lat;lon;timestamp;pressure;altitude;pressure_sealevel;temperature;humidity
32197;BME280;18697;42.770;23.400;2022-07-10T00:02:32;95512.09;;;22.43;54.77
32197;BME280;18697;42.770;23.400;2022-07-10T00:04:58;95505.34;;;22.46;54.35
32197;BME280;18697;42.770;23.400;2022-07-10T00:07:23;95503.50;;;22.48;54.23
32197;BME280;18697;42.770;23.400;2022-07-10T00:09:48;95506.31;;;22.48;54.26
32197;BME280;18697;42.770;23.400;2022-07-10T00:12:14;95504.25;;;22.49;54.33
32197;BME280;18697;42.770;23.400;2022-07-10T00:14:39;95505.69;;;22.29;54.81
32197;BME280;18697;42.770;23.400;2022-07-10T00:17:05;95505.69;;;22.29;56.14
32197;BME280;18697;42.770;23.400;2022-07-10T00:19:30;95505.69;;;22.29;57.87
32197;BME280;18697;42.770;23.400;2022-07-10T00:21:55;95506.34;;;22.35;58.25
32197;BME280;18697;42.770;23.400;2022-07-10T00:24:21;95502.75;;;22.35;57.28
32197;BME280;18697;42.770;23.400;2022-07-10T00:26:46;95505.03;;;22.36;55.82
32197;BME280;18697;42.770;23.400;2022-07-10T00:29:13;95507.31;;;22.38;55.85
32197;BME280;18697;42.770;23.400;2022-07-10T00:31:39;95505.78;;;22.37;55.31
32197;BME280;18697;42.770;23.400;2022-07-10T00:34:04;95498.81;;;22.38;55.38
32197;BME280;18697;42.770;23.400;2022-07-10T00:36:29;95500.59;;;22.27;55.01
32197;BME280;18697;42.770;23.400;2022-07-10T00:38:55;95497.56;;;22.12;55.29
32197;BME280;18697;42.770;23.400;2022-07-10T00:41:20;95494.16;;;22.01;56.41
32197;BME280;18697;42.770;23.400;2022-07-10T00:43:53;95484.28;;;22.07;56.00
32197;BME280;18697;42.770;23.400;2022-07-10T00:46:19;95484.19;;;22.13;55.46
32197;BME280;18697;42.770;23.400;2022-07-10T00:48:50;95482.56;;;22.17;55.11
32197;BME280;18697;42.770;23.400;2022-07-10T00:51:17;95480.91;;;22.22;54.96
32197;BME280;18697;42.770;23.400;2022-07-10T00:53:48;95483.28;;;22.31;54.63
32197;BME280;18697;42.770;23.400;2022-07-10T00:56:17;95486.31;;;22.33;54.71
32197;BME280;18697;42.770;23.400;2022-07-10T00:58:46;95478.81;;;22.36;54.21
32197;BME280;18697;42.770;23.400;2022-07-10T01:01:12;95481.09;;;22.37;53.76
32197;BME280;18697;42.770;23.400;2022-07-10T01:03:37;95478.25;;;22.37;54.26
32197;BME280;18697;42.770;23.400;2022-07-10T01:06:03;95486.75;;;22.37;53.96
32197;BME280;18697;42.770;23.400;2022-07-10T01:08:29;95482.50;;;22.30;53.77
32197;BME280;18697;42.770;23.400;2022-07-10T01:10:54;95475.69;;;22.13;53.43
32197;BME280;18697;42.770;23.400;2022-07-10T01:13:20;95476.31;;;21.79;54.82
32197;BME280;18697;42.770;23.400;2022-07-10T01:15:46;95467.50;;;21.83;54.94
32197;BME280;18697;42.770;23.400;2022-07-10T01:18:13;95470.66;;;21.92;54.76
32197;BME280;18697;42.770;23.400;2022-07-10T01:20:38;95472.09;;;21.99;54.65
32197;BME280;18697;42.770;23.400;2022-07-10T01:23:04;95468.50;;;21.98;54.35
32197;BME280;18697;42.770;23.400;2022-07-10T01:25:29;95470.03;;;22.00;54.35
32197;BME280;18697;42.770;23.400;2022-07-10T01:27:55;95459.47;;;22.00;54.02
32197;BME280;18697;42.770;23.400;2022-07-10T01:30:20;95458.28;;;21.95;53.77
32197;BME280;18697;42.770;23.400;2022-07-10T01:32:46;95456.31;;;21.90;53.98
32197;BME280;18697;42.770;23.400;2022-07-10T01:35:11;95457.41;;;21.87;54.13
32197;BME280;18697;42.770;23.400;2022-07-10T01:37:38;95457.66;;;22.03;54.17
32197;BME280;18697;42.770;23.400;2022-07-10T01:40:04;95454.50;;;22.06;53.81
32197;BME280;18697;42.770;23.400;2022-07-10T01:42:29;95454.59;;;22.14;53.67
32197;BME280;18697;42.770;23.400;2022-07-10T01:44:55;95451.78;;;22.14;53.34
32197;BME280;18697;42.770;23.400;2022-07-10T01:47:21;95451.78;;;22.14;53.48
32197;BME280;18697;42.770;23.400;2022-07-10T01:52:15;95445.56;;;22.15;53.13
32197;BME280;18697;42.770;23.400;2022-07-10T01:54:40;95446.31;;;22.16;53.22
32197;BME280;18697;42.770;23.400;2022-07-10T01:57:06;95447.19;;;22.24;53.11
32197;BME280;18697;42.770;23.400;2022-07-10T01:59:31;95447.19;;;22.11;53.33
32197;BME280;18697;42.770;23.400;2022-07-10T02:01:56;95450.13;;;22.18;53.08
32197;BME280;18697;42.770;23.400;2022-07-10T02:04:22;95453.50;;;22.17;53.50
32197;BME280;18697;42.770;23.400;2022-07-10T02:07:06;95448.94;;;22.14;53.42
32197;BME280;18697;42.770;23.400;2022-07-10T02:09:32;95446.44;;;22.10;53.33
32197;BME280;18697;42.770;23.400;2022-07-10T02:11:57;95455.56;;;22.16;53.07
32197;BME280;18697;42.770;23.400;2022-07-10T02:14:22;95447.63;;;22.15;53.32
32197;BME280;18697;42.770;23.400;2022-07-10T02:16:48;95448.94;;;22.14;53.12
32197;BME280;18697;42.770;23.400;2022-07-10T02:19:13;95441.75;;;22.13;53.16
32197;BME280;18697;42.770;23.400;2022-07-10T02:21:38;95446.13;;;22.14;53.10
32197;BME280;18697;42.770;23.400;2022-07-10T02:24:04;95435.88;;;22.11;52.83
32197;BME280;18697;42.770;23.400;2022-07-10T02:26:29;95451.00;;;22.13;53.09
32197;BME280;18697;42.770;23.400;2022-07-10T02:28:55;95439.69;;;22.13;52.78
32197;BME280;18697;42.770;23.400;2022-07-10T02:31:21;95438.94;;;22.13;52.92
32197;BME280;18697;42.770;23.400;2022-07-10T02:33:46;95434.81;;;22.14;52.96
32197;BME280;18697;42.770;23.400;2022-07-10T02:36:11;95438.72;;;22.11;53.02
32197;BME280;18697;42.770;23.400;2022-07-10T02:38:37;95438.91;;;22.00;52.93
32197;BME280;18697;42.770;23.400;2022-07-10T02:41:02;95435.66;;;21.95;53.33
32197;BME280;18697;42.770;23.400;2022-07-10T02:43:27;95443.06;;;21.85;53.04
32197;BME280;18697;42.770;23.400;2022-07-10T02:45:53;95433.81;;;21.85;53.32
32197;BME280;18697;42.770;23.400;2022-07-10T02:48:18;95437.84;;;21.89;53.03
32197;BME280;18697;42.770;23.400;2022-07-10T02:50:44;95436.97;;;21.81;52.71
32197;BME280;18697;42.770;23.400;2022-07-10T02:53:09;95449.13;;;21.76;52.98
32197;BME280;18697;42.770;23.400;2022-07-10T02:55:34;95446.41;;;21.71;53.22
32197;BME280;18697;42.770;23.400;2022-07-10T02:58:00;95451.28;;;21.57;53.39
32197;BME280;18697;42.770;23.400;2022-07-10T03:00:26;95451.09;;;21.68;53.67
32197;BME280;18697;42.770;23.400;2022-07-10T03:02:53;95461.97;;;21.77;53.05
32197;BME280;18697;42.770;23.400;2022-07-10T03:05:19;95459.03;;;21.83;53.13
32197;BME280;18697;42.770;23.400;2022-07-10T03:07:44;95462.50;;;21.76;53.40
32197;BME280;18697;42.770;23.400;2022-07-10T03:10:09;95467.06;;;21.79;53.36
32197;BME280;18697;42.770;23.400;2022-07-10T03:12:35;95463.72;;;21.80;53.38
32197;BME280;18697;42.770;23.400;2022-07-10T03:15:02;95458.50;;;21.84;53.35
32197;BME280;18697;42.770;23.400;2022-07-10T03:17:27;95464.38;;;21.86;53.12
32197;BME280;18697;42.770;23.400;2022-07-10T03:19:53;95460.22;;;21.87;53.21
32197;BME280;18697;42.770;23.400;2022-07-10T03:22:18;95472.09;;;21.86;53.24
32197;BME280;18697;42.770;23.400;2022-07-10T03:24:44;95458.94;;;21.88;53.18
32197;BME280;18697;42.770;23.400;2022-07-10T03:27:12;95459.13;;;21.77;53.21
32197;BME280;18697;42.770;23.400;2022-07-10T03:29:38;95464.78;;;21.51;54.26
32197;BME280;18697;42.770;23.400;2022-07-10T03:32:04;95458.06;;;21.54;54.04
32197;BME280;18697;42.770;23.400;2022-07-10T03:34:30;95467.59;;;21.51;53.94
32197;BME280;18697;42.770;23.400;2022-07-10T03:36:55;95459.13;;;21.51;54.02
32197;BME280;18697;42.770;23.400;2022-07-10T03:39:21;95465.41;;;21.57;53.80
32197;BME280;18697;42.770;23.400;2022-07-10T03:41:46;95460.44;;;21.63;53.76
32197;BME280;18697;42.770;23.400;2022-07-10T03:44:12;95463.91;;;21.69;53.72
32197;BME280;18697;42.770;23.400;2022-07-10T03:46:37;95466.53;;;21.67;53.85
32197;BME280;18697;42.770;23.400;2022-07-10T03:49:03;95461.09;;;21.69;53.70
32197;BME280;18697;42.770;23.400;2022-07-10T03:51:28;95454.78;;;21.76;53.42
32197;BME280;18697;42.770;23.400;2022-07-10T03:53:53;95462.50;;;21.89;53.33
32197;BME280;18697;42.770;23.400;2022-07-10T03:56:19;95462.28;;;21.87;52.94
32197;BME280;18697;42.770;23.400;2022-07-10T03:59:03;95458.50;;;21.84;53.15
32197;BME280;18697;42.770;23.400;2022-07-10T04:01:28;95454.03;;;21.89;53.61
32197;BME280;18697;42.770;23.400;2022-07-10T04:03:53;95458.50;;;21.97;54.04
32197;BME280;18697;42.770;23.400;2022-07-10T04:06:19;95461.09;;;21.95;53.82
32197;BME280;18697;42.770;23.400;2022-07-10T04:08:44;95460.44;;;21.89;54.24
32197;BME280;18697;42.770;23.400;2022-07-10T04:11:10;95449.91;;;21.90;54.19
32197;BME280;18697;42.770;23.400;2022-07-10T04:13:35;95451.00;;;21.87;54.64
32197;BME280;18697;42.770;23.400;2022-07-10T04:16:02;95454.56;;;21.87;54.64
32197;BME280;18697;42.770;23.400;2022-07-10T04:18:28;95452.06;;;21.84;54.88
32197;BME280;18697;42.770;23.400;2022-07-10T04:20:53;95456.31;;;21.77;55.43
32197;BME280;18697;42.770;23.400;2022-07-10T04:23:19;95449.25;;;21.71;55.62
32197;BME280;18697;42.770;23.400;2022-07-10T04:25:44;95439.13;;;21.75;55.71
32197;BME280;18697;42.770;23.400;2022-07-10T04:28:10;95428.47;;;21.81;55.73
32197;BME280;18697;42.770;23.400;2022-07-10T04:30:35;95435.88;;;21.84;56.20
32197;BME280;18697;42.770;23.400;2022-07-10T04:33:01;95436.31;;;21.88;56.76
32197;BME280;18697;42.770;23.400;2022-07-10T04:35:26;95444.13;;;21.95;56.94
32197;BME280;18697;42.770;23.400;2022-07-10T04:37:52;95442.75;;;22.02;56.34
32197;BME280;18697;42.770;23.400;2022-07-10T04:40:18;95442.09;;;22.09;56.81
32197;BME280;18697;42.770;23.400;2022-07-10T04:42:43;95444.38;;;22.11;56.58
32197;BME280;18697;42.770;23.400;2022-07-10T04:45:10;95435.00;;;22.16;56.45
32197;BME280;18697;42.770;23.400;2022-07-10T04:47:36;95432.41;;;22.18;56.58
32197;BME280;18697;42.770;23.400;2022-07-10T04:50:04;95434.03;;;22.13;57.29
32197;BME280;18697;42.770;23.400;2022-07-10T04:52:30;95443.06;;;22.12;57.39
32197;BME280;18697;42.770;23.400;2022-07-10T04:54:55;95447.72;;;22.22;58.62
32197;BME280;18697;42.770;23.400;2022-07-10T04:57:21;95445.44;;;22.21;58.43
32197;BME280;18697;42.770;23.400;2022-07-10T04:59:46;95439.38;;;22.17;59.30
32197;BME280;18697;42.770;23.400;2022-07-10T05:02:12;95440.47;;;22.14;59.21
32197;BME280;18697;42.770;23.400;2022-07-10T05:04:37;95439.34;;;21.90;59.85
32197;BME280;18697;42.770;23.400;2022-07-10T05:07:03;95450.09;;;21.65;61.37
32197;BME280;18697;42.770;23.400;2022-07-10T05:09:28;95447.28;;;21.65;61.63
32197;BME280;18697;42.770;23.400;2022-07-10T05:11:54;95433.47;;;21.62;62.02
32197;BME280;18697;42.770;23.400;2022-07-10T05:14:19;95441.28;;;21.56;62.48
32197;BME280;18697;42.770;23.400;2022-07-10T05:16:45;95444.66;;;21.41;62.93
32197;BME280;18697;42.770;23.400;2022-07-10T05:19:10;95442.06;;;21.43;62.86
32197;BME280;18697;42.770;23.400;2022-07-10T05:21:35;95440.31;;;21.40;63.14
32197;BME280;18697;42.770;23.400;2022-07-10T05:24:03;95436.41;;;21.43;63.52
32197;BME280;18697;42.770;23.400;2022-07-10T05:26:29;95437.94;;;21.44;63.88
32197;BME280;18697;42.770;23.400;2022-07-10T05:28:54;95427.50;;;21.65;63.44
32197;BME280;18697;42.770;23.400;2022-07-10T05:31:19;95429.47;;;21.71;62.50
32197;BME280;18697;42.770;23.400;2022-07-10T05:33:45;95432.84;;;21.82;62.40
32197;BME280;18697;42.770;23.400;2022-07-10T05:36:10;95432.28;;;21.84;62.40
32197;BME280;18697;42.770;23.400;2022-07-10T05:38:36;95433.91;;;21.79;63.04
32197;BME280;18697;42.770;23.400;2022-07-10T05:41:01;95439.34;;;21.77;63.06
32197;BME280;18697;42.770;23.400;2022-07-10T05:43:27;95430.66;;;21.75;62.77
32197;BME280;18697;42.770;23.400;2022-07-10T05:45:52;95430.44;;;21.86;62.51
32197;BME280;18697;42.770;23.400;2022-07-10T05:48:18;95430.44;;;22.00;62.38
32197;BME280;18697;42.770;23.400;2022-07-10T05:50:44;95420.00;;;21.94;62.43
32197;BME280;18697;42.770;23.400;2022-07-10T05:53:10;95421.97;;;22.13;62.26
32197;BME280;18697;42.770;23.400;2022-07-10T05:55:35;95419.34;;;22.15;62.13
32197;BME280;18697;42.770;23.400;2022-07-10T05:58:00;95421.53;;;22.09;62.69
32197;BME280;18697;42.770;23.400;2022-07-10T06:00:27;95427.84;;;22.02;62.61
32197;BME280;18697;42.770;23.400;2022-07-10T06:02:52;95428.63;;;22.02;62.63
32197;BME280;18697;42.770;23.400;2022-07-10T06:05:18;95430.75;;;21.96;62.68
32197;BME280;18697;42.770;23.400;2022-07-10T06:07:43;95430.75;;;21.96;63.68
32197;BME280;18697;42.770;23.400;2022-07-10T06:10:09;95434.56;;;21.98;63.34
32197;BME280;18697;42.770;23.400;2022-07-10T06:12:34;95431.63;;;21.91;63.47
32197;BME280;18697;42.770;23.400;2022-07-10T06:15:00;95426.31;;;21.87;63.31
32197;BME280;18697;42.770;23.400;2022-07-10T06:17:26;95433.81;;;21.98;63.76
32197;BME280;18697;42.770;23.400;2022-07-10T06:19:51;95427.53;;;22.05;63.72
32197;BME280;18697;42.770;23.400;2022-07-10T06:22:17;95431.53;;;22.10;63.72
32197;BME280;18697;42.770;23.400;2022-07-10T06:24:59;95424.59;;;22.11;63.72
32197;BME280;18697;42.770;23.400;2022-07-10T06:27:25;95424.34;;;22.22;63.21
32197;BME280;18697;42.770;23.400;2022-07-10T06:32:16;95413.84;;;22.30;62.69
32197;BME280;18697;42.770;23.400;2022-07-10T06:34:42;95420.63;;;22.27;62.83
32197;BME280;18697;42.770;23.400;2022-07-10T06:37:07;95411.41;;;22.47;62.68
32197;BME280;18697;42.770;23.400;2022-07-10T06:39:33;95419.81;;;22.74;62.07
32197;BME280;18697;42.770;23.400;2022-07-10T06:42:02;95418.72;;;22.77;62.35
32197;BME280;18697;42.770;23.400;2022-07-10T06:44:28;95420.69;;;22.82;62.52
32197;BME280;18697;42.770;23.400;2022-07-10T06:46:54;95413.25;;;22.92;63.03
32197;BME280;18697;42.770;23.400;2022-07-10T06:49:39;95419.38;;;23.04;62.20
32197;BME280;18697;42.770;23.400;2022-07-10T06:52:05;95410.13;;;23.03;62.12
32197;BME280;18697;42.770;23.400;2022-07-10T06:54:32;95407.22;;;23.16;61.29
32197;BME280;18697;42.770;23.400;2022-07-10T06:56:57;95407.22;;;23.16;61.03
32197;BME280;18697;42.770;23.400;2022-07-10T06:59:23;95413.78;;;23.32;60.54
32197;BME280;18697;42.770;23.400;2022-07-10T07:01:48;95413.69;;;23.45;59.54
32197;BME280;18697;42.770;23.400;2022-07-10T07:04:14;95407.44;;;23.68;60.28
32197;BME280;18697;42.770;23.400;2022-07-10T07:06:39;95404.97;;;23.64;59.44
32197;BME280;18697;42.770;23.400;2022-07-10T07:09:05;95406.03;;;23.53;58.77
32197;BME280;18697;42.770;23.400;2022-07-10T07:11:30;95395.81;;;23.30;59.63
32197;BME280;18697;42.770;23.400;2022-07-10T07:13:56;95408.72;;;23.38;59.93
32197;BME280;18697;42.770;23.400;2022-07-10T07:16:21;95410.25;;;23.39;59.35
32197;BME280;18697;42.770;23.400;2022-07-10T07:18:52;95403.94;;;23.54;58.95
32197;BME280;18697;42.770;23.400;2022-07-10T07:21:20;95400.84;;;23.23;58.56
32197;BME280;18697;42.770;23.400;2022-07-10T07:24:04;95400.81;;;22.95;60.18
32197;BME280;18697;42.770;23.400;2022-07-10T07:26:30;95404.44;;;23.03;59.07
32197;BME280;18697;42.770;23.400;2022-07-10T07:28:56;95397.81;;;22.12;61.34
32197;BME280;18697;42.770;23.400;2022-07-10T07:31:21;95405.84;;;21.94;63.17
32197;BME280;18697;42.770;23.400;2022-07-10T07:33:47;95402.34;;;22.28;63.20
32197;BME280;18697;42.770;23.400;2022-07-10T07:36:13;95398.38;;;22.44;61.24
32197;BME280;18697;42.770;23.400;2022-07-10T07:38:38;95394.13;;;22.85;60.79
32197;BME280;18697;42.770;23.400;2022-07-10T07:41:04;95391.25;;;23.26;59.43
32197;BME280;18697;42.770;23.400;2022-07-10T07:43:29;95388.16;;;23.66;58.42
32197;BME280;18697;42.770;23.400;2022-07-10T07:45:54;95385.13;;;23.43;56.42
32197;BME280;18697;42.770;23.400;2022-07-10T07:48:20;95385.19;;;23.51;58.84
32197;BME280;18697;42.770;23.400;2022-07-10T07:50:45;95384.00;;;23.67;57.79
32197;BME280;18697;42.770;23.400;2022-07-10T07:53:11;95385.28;;;23.95;57.51
32197;BME280;18697;42.770;23.400;2022-07-10T07:55:37;95379.00;;;24.24;55.52
32197;BME280;18697;42.770;23.400;2022-07-10T07:58:05;95386.09;;;24.54;54.97
32197;BME280;18697;42.770;23.400;2022-07-10T08:00:31;95382.38;;;24.74;54.24
32197;BME280;18697;42.770;23.400;2022-07-10T08:03:07;95379.41;;;25.03;55.05
32197;BME280;18697;42.770;23.400;2022-07-10T08:06:02;95381.13;;;24.32;51.23
32197;BME280;18697;42.770;23.400;2022-07-10T08:08:27;95378.56;;;24.72;50.99
32197;BME280;18697;42.770;23.400;2022-07-10T08:10:53;95381.13;;;25.06;52.34
32197;BME280;18697;42.770;23.400;2022-07-10T08:13:18;95373.53;;;25.24;50.14
32197;BME280;18697;42.770;23.400;2022-07-10T08:15:43;95374.47;;;25.49;49.81
32197;BME280;18697;42.770;23.400;2022-07-10T08:18:09;95377.88;;;25.70;50.17
32197;BME280;18697;42.770;23.400;2022-07-10T08:20:34;95366.59;;;24.43;48.75
32197;BME280;18697;42.770;23.400;2022-07-10T08:23:00;95369.47;;;24.66;49.17
32197;BME280;18697;42.770;23.400;2022-07-10T08:25:25;95378.03;;;24.22;51.40
32197;BME280;18697;42.770;23.400;2022-07-10T08:27:51;95367.97;;;24.72;52.37
32197;BME280;18697;42.770;23.400;2022-07-10T08:30:17;95366.16;;;25.05;53.29
32197;BME280;18697;42.770;23.400;2022-07-10T08:32:42;95372.19;;;25.40;52.90
32197;BME280;18697;42.770;23.400;2022-07-10T08:35:12;95379.94;;;25.47;51.37
32197;BME280;18697;42.770;23.400;2022-07-10T08:37:42;95380.53;;;25.30;50.01
32197;BME280;18697;42.770;23.400;2022-07-10T08:40:09;95384.53;;;25.19;50.91
32197;BME280;18697;42.770;23.400;2022-07-10T08:42:35;95386.97;;;25.00;51.66
32197;BME280;18697;42.770;23.400;2022-07-10T08:45:01;95376.94;;;25.14;52.67
32197;BME280;18697;42.770;23.400;2022-07-10T08:47:26;95370.69;;;25.31;51.32
32197;BME280;18697;42.770;23.400;2022-07-10T08:49:56;95374.63;;;25.51;50.83
32197;BME280;18697;42.770;23.400;2022-07-10T08:52:33;95364.22;;;25.76;50.28
32197;BME280;18697;42.770;23.400;2022-07-10T08:54:59;95359.94;;;26.00;51.96
32197;BME280;18697;42.770;23.400;2022-07-10T08:57:25;95364.00;;;25.82;49.29
32197;BME280;18697;42.770;23.400;2022-07-10T08:59:51;95370.28;;;25.35;52.24
32197;BME280;18697;42.770;23.400;2022-07-10T09:02:16;95369.53;;;25.57;51.47
32197;BME280;18697;42.770;23.400;2022-07-10T09:04:42;95357.41;;;25.41;49.72
32197;BME280;18697;42.770;23.400;2022-07-10T09:07:07;95361.53;;;24.79;52.27
32197;BME280;18697;42.770;23.400;2022-07-10T09:09:53;95359.03;;;24.61;51.87
32197;BME280;18697;42.770;23.400;2022-07-10T09:12:23;95358.34;;;24.16;52.61
32197;BME280;18697;42.770;23.400;2022-07-10T09:14:50;95357.03;;;23.81;53.68
32197;BME280;18697;42.770;23.400;2022-07-10T09:17:17;95359.22;;;24.47;52.80
32197;BME280;18697;42.770;23.400;2022-07-10T09:19:43;95359.34;;;25.08;54.57
32197;BME280;18697;42.770;23.400;2022-07-10T09:22:09;95351.75;;;25.18;51.33
32197;BME280;18697;42.770;23.400;2022-07-10T09:24:40;95362.53;;;25.35;50.31
32197;BME280;18697;42.770;23.400;2022-07-10T09:27:06;95362.16;;;25.39;49.93
32197;BME280;18697;42.770;23.400;2022-07-10T09:29:52;95356.09;;;25.35;49.57
32197;BME280;18697;42.770;23.400;2022-07-10T09:32:21;95353.91;;;24.44;51.21
32197;BME280;18697;42.770;23.400;2022-07-10T09:34:48;95355.59;;;23.96;51.97
32197;BME280;18697;42.770;23.400;2022-07-10T09:37:28;95358.06;;;23.99;52.61
32197;BME280;18697;42.770;23.400;2022-07-10T09:39:57;95354.53;;;24.14;52.06
32197;BME280;18697;42.770;23.400;2022-07-10T09:44:52;95342.53;;;24.29;50.54
32197;BME280;18697;42.770;23.400;2022-07-10T09:47:23;95353.38;;;24.09;53.40
32197;BME280;18697;42.770;23.400;2022-07-10T09:49:49;95344.97;;;23.88;53.28
32197;BME280;18697;42.770;23.400;2022-07-10T09:52:17;95339.44;;;23.47;53.49
32197;BME280;18697;42.770;23.400;2022-07-10T09:54:44;95349.28;;;23.74;54.24
32197;BME280;18697;42.770;23.400;2022-07-10T09:57:12;95345.38;;;23.92;53.25
32197;BME280;18697;42.770;23.400;2022-07-10T09:59:38;95339.22;;;24.09;50.92
32197;BME280;18697;42.770;23.400;2022-07-10T10:02:05;95339.41;;;24.11;50.33
32197;BME280;18697;42.770;23.400;2022-07-10T10:04:33;95341.81;;;24.00;51.38
32197;BME280;18697;42.770;23.400;2022-07-10T10:06:59;95332.94;;;24.03;51.18
32197;BME280;18697;42.770;23.400;2022-07-10T10:09:41;95344.25;;;23.96;52.00
32197;BME280;18697;42.770;23.400;2022-07-10T10:12:16;95350.34;;;24.07;51.98
32197;BME280;18697;42.770;23.400;2022-07-10T10:14:43;95346.97;;;24.09;52.17
32197;BME280;18697;42.770;23.400;2022-07-10T10:17:10;95349.25;;;24.18;51.62
32197;BME280;18697;42.770;23.400;2022-07-10T10:19:38;95345.91;;;24.27;51.91
32197;BME280;18697;42.770;23.400;2022-07-10T10:22:22;95345.00;;;24.32;51.56
32197;BME280;18697;42.770;23.400;2022-07-10T10:24:49;95340.28;;;24.42;52.34
32197;BME280;18697;42.770;23.400;2022-07-10T10:27:15;95328.97;;;24.50;51.70
32197;BME280;18697;42.770;23.400;2022-07-10T10:29:44;95341.84;;;24.07;53.20
32197;BME280;18697;42.770;23.400;2022-07-10T10:32:10;95323.13;;;24.12;52.11
32197;BME280;18697;42.770;23.400;2022-07-10T10:34:44;95330.75;;;24.24;52.01
32197;BME280;18697;42.770;23.400;2022-07-10T10:39:57;95331.31;;;24.23;52.72
32197;BME280;18697;42.770;23.400;2022-07-10T10:42:40;95330.59;;;24.30;52.49
32197;BME280;18697;42.770;23.400;2022-07-10T10:50:42;95332.72;;;24.45;52.50
32197;BME280;18697;42.770;23.400;2022-07-10T10:55:57;95329.16;;;24.75;51.69
32197;BME280;18697;42.770;23.400;2022-07-10T10:58:28;95322.94;;;24.92;51.22
32197;BME280;18697;42.770;23.400;2022-07-10T11:06:41;95322.00;;;25.12;50.92
32197;BME280;18697;42.770;23.400;2022-07-10T11:09:31;95315.00;;;25.20;50.59
32197;BME280;18697;42.770;23.400;2022-07-10T11:12:10;95313.69;;;25.21;50.65
32197;BME280;18697;42.770;23.400;2022-07-10T11:14:39;95312.50;;;25.32;51.04
32197;BME280;18697;42.770;23.400;2022-07-10T11:17:05;95310.03;;;25.36;50.81
32197;BME280;18697;42.770;23.400;2022-07-10T11:19:32;95312.69;;;25.42;50.67
32197;BME280;18697;42.770;23.400;2022-07-10T11:24:45;95305.84;;;25.45;50.28
32197;BME280;18697;42.770;23.400;2022-07-10T11:30:12;95301.66;;;25.53;49.53
32197;BME280;18697;42.770;23.400;2022-07-10T11:32:38;95302.06;;;25.50;49.26
32197;BME280;18697;42.770;23.400;2022-07-10T11:35:06;95299.03;;;25.48;49.03
32197;BME280;18697;42.770;23.400;2022-07-10T11:37:33;95301.28;;;25.49;49.01
32197;BME280;18697;42.770;23.400;2022-07-10T11:40:09;95302.81;;;25.50;48.20
32197;BME280;18697;42.770;23.400;2022-07-10T11:42:54;95301.47;;;25.59;48.99
32197;BME280;18697;42.770;23.400;2022-07-10T11:47:49;95301.84;;;25.55;48.40
32197;BME280;18697;42.770;23.400;2022-07-10T11:50:14;95295.97;;;25.53;45.53
32197;BME280;18697;42.770;23.400;2022-07-10T11:52:40;95300.53;;;25.49;44.42
32197;BME280;18697;42.770;23.400;2022-07-10T11:55:19;95302.81;;;25.43;46.34
32197;BME280;18697;42.770;23.400;2022-07-10T11:57:45;95292.19;;;25.51;46.42
32197;BME280;18697;42.770;23.400;2022-07-10T12:00:28;95296.75;;;25.39;42.96
32197;BME280;18697;42.770;23.400;2022-07-10T12:02:55;95299.59;;;25.39;44.76
32197;BME280;18697;42.770;23.400;2022-07-10T12:05:35;95293.72;;;25.44;44.50
32197;BME280;18697;42.770;23.400;2022-07-10T12:08:01;95300.34;;;25.47;44.81
32197;BME280;18697;42.770;23.400;2022-07-10T12:10:31;95301.09;;;25.55;44.71
32197;BME280;18697;42.770;23.400;2022-07-10T12:15:36;95307.34;;;25.53;45.29
32197;BME280;18697;42.770;23.400;2022-07-10T12:18:23;95313.78;;;25.54;45.60
32197;BME280;18697;42.770;23.400;2022-07-10T12:20:49;95313.03;;;25.61;45.53
32197;BME280;18697;42.770;23.400;2022-07-10T12:23:18;95311.69;;;25.62;45.79
32197;BME280;18697;42.770;23.400;2022-07-10T12:25:46;95323.63;;;25.61;45.66
32197;BME280;18697;42.770;23.400;2022-07-10T12:28:13;95313.41;;;25.65;45.98
32197;BME280;18697;42.770;23.400;2022-07-10T12:30:39;95303.16;;;25.62;45.52
32197;BME280;18697;42.770;23.400;2022-07-10T12:33:24;95307.91;;;25.60;46.30
32197;BME280;18697;42.770;23.400;2022-07-10T12:35:51;95310.75;;;25.52;46.63
32197;BME280;18697;42.770;23.400;2022-07-10T12:38:20;95316.81;;;25.56;46.64
32197;BME280;18697;42.770;23.400;2022-07-10T12:40:46;95315.50;;;25.49;45.88
32197;BME280;18697;42.770;23.400;2022-07-10T12:43:11;95316.44;;;25.52;45.12
32197;BME280;18697;42.770;23.400;2022-07-10T12:45:37;95308.69;;;25.52;45.75
32197;BME280;18697;42.770;23.400;2022-07-10T12:48:04;95298.81;;;25.61;45.86
32197;BME280;18697;42.770;23.400;2022-07-10T12:50:31;95302.22;;;25.67;46.73
32197;BME280;18697;42.770;23.400;2022-07-10T12:53:12;95307.31;;;25.76;46.35
32197;BME280;18697;42.770;23.400;2022-07-10T12:55:38;95308.69;;;25.45;48.79
32197;BME280;18697;42.770;23.400;2022-07-10T12:58:07;95302.31;;;25.06;51.03
32197;BME280;18697;42.770;23.400;2022-07-10T13:00:46;95301.16;;;24.71;52.46
32197;BME280;18697;42.770;23.400;2022-07-10T13:03:19;95306.03;;;24.40;54.02
32197;BME280;18697;42.770;23.400;2022-07-10T13:05:47;95301.47;;;24.30;54.07
32197;BME280;18697;42.770;23.400;2022-07-10T13:08:18;95294.47;;;24.31;53.83
32197;BME280;18697;42.770;23.400;2022-07-10T13:11:01;95295.56;;;24.20;53.99
32197;BME280;18697;42.770;23.400;2022-07-10T13:13:27;95288.75;;;24.23;53.90
32197;BME280;18697;42.770;23.400;2022-07-10T13:15:53;95281.25;;;24.41;53.75
32197;BME280;18697;42.770;23.400;2022-07-10T13:18:21;95285.06;;;24.51;52.55
32197;BME280;18697;42.770;23.400;2022-07-10T13:20:48;95283.53;;;24.65;53.17
32197;BME280;18697;42.770;23.400;2022-07-10T13:23:15;95289.97;;;24.88;51.41
32197;BME280;18697;42.770;23.400;2022-07-10T13:25:41;95287.75;;;25.02;51.16
32197;BME280;18697;42.770;23.400;2022-07-10T13:28:08;95295.69;;;25.19;51.50